Time;durP1;ratioP1;P1;durP2;ratioP2;P2;SDS_P1;SDS_P2;PMS_P1;PMS_P2;Temp;Humidity;BMP_temperature;BMP_pressure;BME280_temperature;BME280_humidity;BME280_pressure;Samples;Min_cycle;Max_cycle;Signal;HPM_P1;HPM_P2
2023/09/27 00:01:14;;;;;;;0.00;0.00;;;;;;;26.22;48.95;101990.50;5071751;28;20033;-72
2023/09/27 00:03:39;;;;;;;0.00;0.00;;;;;;;26.25;48.70;101995.38;5071405;28;20037;-72
2023/09/27 00:06:05;;;;;;;0.10;0.10;;;;;;;26.20;49.08;102004.56;5071425;28;20029;-73
2023/09/27 00:08:30;;;;;;;0.00;0.00;;;;;;;26.31;47.92;102006.03;5071272;28;20338;-72
2023/09/27 00:10:55;;;;;;;0.00;0.00;;;;;;;26.34;48.31;102007.38;5070555;28;20040;-71
2023/09/27 00:13:21;;;;;;;0.08;0.08;;;;;;;26.27;48.01;102015.19;5070175;28;20715;-73
2023/09/27 00:15:47;;;;;;;0.10;0.10;;;;;;;26.31;48.13;102010.72;5071546;28;20039;-71
2023/09/27 00:18:14;;;;;;;0.10;0.10;;;;;;;26.01;49.10;102015.59;5070222;28;20400;-71
2023/09/27 00:20:40;;;;;;;0.10;0.10;;;;;;;26.08;48.30;102009.75;5070067;28;20139;-72
2023/09/27 00:23:07;;;;;;;0.10;0.10;;;;;;;26.06;48.71;102006.47;5070229;28;20408;-72
2023/09/27 00:25:33;;;;;;;0.10;0.10;;;;;;;26.06;48.28;102003.72;5070263;28;20097;-72
2023/09/27 00:27:58;;;;;;;0.10;0.10;;;;;;;26.04;48.40;102014.97;5053554;28;20074;-72
2023/09/27 00:30:23;;;;;;;0.10;0.10;;;;;;;26.01;48.61;102014.75;5050221;28;20041;-73
2023/09/27 00:32:49;;;;;;;0.10;0.10;;;;;;;25.61;49.57;102018.94;5050444;28;20064;-73
2023/09/27 00:35:19;;;;;;;0.10;0.10;;;;;;;25.82;48.87;102014.81;5050026;28;20033;-71
2023/09/27 00:37:46;;;;;;;0.00;0.00;;;;;;;25.69;49.64;102023.78;5050110;28;20105;-72
2023/09/27 00:40:13;;;;;;;0.10;0.10;;;;;;;25.72;49.29;102022.38;5048401;28;20112;-72
2023/09/27 00:42:38;;;;;;;0.10;0.10;;;;;;;25.86;48.86;102029.63;5049976;28;20033;-72
2023/09/27 00:45:05;;;;;;;0.10;0.10;;;;;;;25.80;48.91;102028.06;5050401;28;20082;-71
2023/09/27 00:47:31;;;;;;;0.10;0.10;;;;;;;25.68;49.39;102030.44;5050858;28;20025;-73
2023/09/27 00:49:57;;;;;;;0.00;0.00;;;;;;;25.75;49.19;102019.06;5050843;28;20666;-71
2023/09/27 00:52:23;;;;;;;0.10;0.10;;;;;;;25.68;49.06;102024.91;5050745;28;20037;-72
2023/09/27 00:54:50;;;;;;;0.05;0.05;;;;;;;25.59;49.58;102017.63;5068480;28;20173;-72
2023/09/27 00:57:16;;;;;;;0.10;0.10;;;;;;;25.60;49.25;102013.75;5070785;28;20051;-72
2023/09/27 00:59:41;;;;;;;0.10;0.10;;;;;;;25.43;49.57;102006.00;5070837;28;20025;-72
2023/09/27 01:02:07;;;;;;;0.10;0.10;;;;;;;25.54;49.71;102017.69;5068981;28;20028;-71
2023/09/27 01:04:32;;;;;;;0.10;0.10;;;;;;;25.53;49.58;102013.31;5070658;28;20036;-71
2023/09/27 01:06:59;;;;;;;0.10;0.10;;;;;;;25.46;50.00;102016.41;5070499;28;20048;-72
2023/09/27 01:09:24;;;;;;;0.17;0.17;;;;;;;25.33;49.87;102011.63;5070501;28;20040;-72
2023/09/27 01:11:50;;;;;;;0.10;0.10;;;;;;;25.48;49.94;102011.44;5070845;28;20032;-72
2023/09/27 01:14:15;;;;;;;0.10;0.10;;;;;;;25.50;49.61;102013.88;5070860;28;20408;-71
2023/09/27 01:16:41;;;;;;;0.03;0.03;;;;;;;25.31;50.38;102011.09;5070289;28;20659;-72
2023/09/27 01:19:07;;;;;;;0.00;0.00;;;;;;;25.41;50.13;102011.00;5070320;28;20036;-72
2023/09/27 01:21:32;;;;;;;0.10;0.10;;;;;;;25.45;49.66;102017.53;5070144;28;20790;-72
2023/09/27 01:23:58;;;;;;;0.10;0.10;;;;;;;25.45;49.78;102017.53;5070097;28;20081;-69
2023/09/27 01:26:23;;;;;;;0.10;0.10;;;;;;;25.25;50.43;102013.09;5067029;28;20535;-71
2023/09/27 01:28:49;;;;;;;0.10;0.10;;;;;;;25.26;50.53;102014.72;5049999;28;20029;-72
2023/09/27 01:31:14;;;;;;;0.10;0.10;;;;;;;25.30;49.64;102000.38;5049627;28;20044;-72
2023/09/27 01:33:40;;;;;;;0.10;0.10;;;;;;;25.23;50.26;101993.31;5050141;28;20060;-72
2023/09/27 01:36:06;;;;;;;0.10;0.10;;;;;;;24.89;50.82;101995.38;5050102;28;20029;-73
2023/09/27 01:38:32;;;;;;;0.20;0.20;;;;;;;24.38;52.38;101995.06;5050275;28;20024;-73
2023/09/27 01:40:58;;;;;;;0.10;0.10;;;;;;;24.38;52.23;101995.06;5065853;28;20614;-72
2023/09/27 01:43:23;;;;;;;0.20;0.20;;;;;;;24.51;52.90;102006.50;5069864;28;20403;-71
2023/09/27 01:45:49;;;;;;;0.10;0.10;;;;;;;24.36;53.34;102005.50;5069873;28;20393;-72
2023/09/27 01:48:14;;;;;;;0.10;0.10;;;;;;;24.30;53.54;101994.84;5069514;28;20067;-72
2023/09/27 01:50:39;;;;;;;0.10;0.10;;;;;;;24.29;52.97;102006.97;5070133;28;20029;-72
2023/09/27 01:53:05;;;;;;;0.10;0.10;;;;;;;24.28;52.98;102006.13;5069744;28;20033;-71
2023/09/27 01:55:31;;;;;;;0.03;0.03;;;;;;;24.19;53.28;101998.81;5069542;28;20040;-72
2023/09/27 01:57:56;;;;;;;0.10;0.10;;;;;;;24.17;53.17;102004.59;5069545;28;20049;-71
2023/09/27 02:00:22;;;;;;;0.10;0.10;;;;;;;24.15;52.55;101995.00;5069840;28;20492;-71
2023/09/27 02:02:57;;;;;;;0.10;0.10;;;;;;;24.24;52.76;101982.25;5070232;28;20672;-72
2023/09/27 02:05:24;;;;;;;0.10;0.10;;;;;;;24.14;52.91;101994.16;5062135;28;20052;-72
2023/09/27 02:07:49;;;;;;;0.10;0.10;;;;;;;24.14;52.74;101993.34;5069749;28;20052;-72
2023/09/27 02:10:15;;;;;;;0.10;0.10;;;;;;;24.11;52.46;101994.75;5069650;28;20044;-72
2023/09/27 02:12:40;;;;;;;0.10;0.10;;;;;;;24.08;52.24;101998.06;5069555;28;20059;-72
2023/09/27 02:15:08;;;;;;;0.10;0.10;;;;;;;24.07;52.56;101993.69;5069949;28;20495;-71
2023/09/27 02:17:33;;;;;;;0.10;0.10;;;;;;;23.94;52.60;101994.28;5069956;28;20561;-72
2023/09/27 02:19:58;;;;;;;0.20;0.20;;;;;;;23.93;52.45;102000.91;5081692;28;20127;-71
2023/09/27 02:22:24;;;;;;;0.10;0.10;;;;;;;23.89;52.52;101994.34;5069351;28;20041;-73
2023/09/27 02:24:50;;;;;;;0.00;0.00;;;;;;;23.87;52.96;101987.50;5077099;28;20024;-72
2023/09/27 02:27:15;;;;;;;0.10;0.10;;;;;;;23.86;53.23;101992.16;5076904;28;20051;-71
2023/09/27 02:29:42;;;;;;;0.10;0.10;;;;;;;23.87;53.16;101998.47;5069983;28;20452;-72
2023/09/27 02:32:07;;;;;;;0.10;0.10;;;;;;;23.89;53.01;102008.06;5069209;28;20040;-73
2023/09/27 02:34:36;;;;;;;0.10;0.10;;;;;;;23.94;52.74;102010.75;5069522;28;20085;-72
2023/09/27 02:37:02;;;;;;;0.10;0.10;;;;;;;23.77;53.25;102010.34;5069308;28;20701;-72
2023/09/27 02:39:30;;;;;;;0.10;0.10;;;;;;;23.80;53.08;102014.47;5065697;28;20039;-72
2023/09/27 02:42:00;;;;;;;0.10;0.10;;;;;;;23.76;52.48;102019.69;5049725;28;20071;-72
2023/09/27 02:44:25;;;;;;;0.10;0.10;;;;;;;23.78;52.74;102011.19;5051692;28;20040;-72
2023/09/27 02:46:52;;;;;;;0.10;0.10;;;;;;;23.63;52.45;102024.97;5049508;28;20067;-71
2023/09/27 02:49:19;;;;;;;0.10;0.10;;;;;;;23.61;52.56;102033.50;5053013;28;20561;-72
2023/09/27 02:51:46;;;;;;;0.10;0.10;;;;;;;23.46;53.59;102042.66;5052787;28;20033;-72
2023/09/27 02:54:14;;;;;;;0.10;0.10;;;;;;;23.61;53.50;102040.91;5035025;28;20040;-73
2023/09/27 02:56:39;;;;;;;0.10;0.10;;;;;;;23.59;53.05;102026.66;5052441;28;20043;-72
2023/09/27 02:59:04;;;;;;;0.20;0.20;;;;;;;23.52;53.23;102019.56;5050171;28;20067;-71
2023/09/27 03:01:30;;;;;;;0.10;0.10;;;;;;;23.43;53.17;102017.66;5051496;28;20036;-72
2023/09/27 03:03:55;;;;;;;0.10;0.10;;;;;;;23.40;53.19;102024.56;5051450;28;20040;-71
2023/09/27 03:06:21;;;;;;;0.10;0.10;;;;;;;23.52;53.18;102013.25;5051834;28;20037;-72
2023/09/27 03:08:48;;;;;;;0.20;0.20;;;;;;;23.45;53.69;102016.28;5051824;28;20043;-72
2023/09/27 03:11:13;;;;;;;0.10;0.10;;;;;;;23.44;53.83;102013.84;5051309;28;20119;-72
2023/09/27 03:13:40;;;;;;;0.10;0.10;;;;;;;23.48;53.04;102013.00;5051084;28;20474;-72
2023/09/27 03:16:05;;;;;;;0.10;0.10;;;;;;;23.47;52.59;102016.84;5051479;28;20039;-72
2023/09/27 03:18:32;;;;;;;0.10;0.10;;;;;;;23.41;53.83;102023.44;5046360;28;20038;-72
2023/09/27 03:20:58;;;;;;;0.15;0.15;;;;;;;23.43;53.10;102017.66;5031538;28;20048;-69
2023/09/27 03:23:27;;;;;;;0.10;0.10;;;;;;;23.32;53.67;102014.19;5051297;28;20049;-73
2023/09/27 03:25:55;;;;;;;0.20;0.20;;;;;;;23.32;53.60;102003.19;5050967;28;20400;-71
2023/09/27 03:28:21;;;;;;;0.10;0.10;;;;;;;23.35;53.66;102007.31;5054601;28;20029;-72
2023/09/27 03:30:46;;;;;;;0.10;0.10;;;;;;;23.34;53.33;102013.88;5051135;28;20033;-72
2023/09/27 03:33:12;;;;;;;0.10;0.10;;;;;;;23.40;53.57;102021.00;5050826;28;20132;-70
2023/09/27 03:35:37;;;;;;;0.22;0.22;;;;;;;23.38;53.92;102017.72;5051742;28;20025;-72
2023/09/27 03:38:03;;;;;;;0.10;0.10;;;;;;;23.39;53.71;102014.69;5051183;28;20497;-72
2023/09/27 03:40:29;;;;;;;0.10;0.10;;;;;;;23.33;54.12;102015.00;5062578;28;20404;-72
2023/09/27 03:42:54;;;;;;;0.10;0.10;;;;;;;23.33;54.16;102010.31;5070524;28;20534;-72
2023/09/27 03:45:20;;;;;;;0.10;0.10;;;;;;;23.31;54.18;102015.25;5070723;28;20081;-72
2023/09/27 03:47:47;;;;;;;0.10;0.10;;;;;;;23.32;53.88;102013.34;5061755;28;20427;-71
2023/09/27 03:50:12;;;;;;;0.10;0.10;;;;;;;23.29;54.06;102011.16;5050535;28;20037;-72
2023/09/27 03:52:41;;;;;;;0.10;0.10;;;;;;;23.28;53.36;102009.50;5050485;28;20079;-72
2023/09/27 03:55:11;;;;;;;0.20;0.20;;;;;;;23.31;53.98;102006.22;5049307;28;20040;-72
2023/09/27 03:57:37;;;;;;;0.10;0.10;;;;;;;23.28;54.01;101999.34;5060532;28;20044;-72
2023/09/27 04:00:07;;;;;;;0.10;0.10;;;;;;;23.28;54.08;102009.50;5070523;28;20035;-70
2023/09/27 04:02:32;;;;;;;0.10;0.10;;;;;;;23.26;54.01;102025.41;5069106;28;20400;-71
2023/09/27 04:04:58;;;;;;;0.20;0.20;;;;;;;23.32;54.44;102030.63;5069991;28;20077;-72
2023/09/27 04:07:24;;;;;;;0.10;0.10;;;;;;;23.34;54.03;102028.44;5069756;28;20040;-72
2023/09/27 04:09:49;;;;;;;0.10;0.10;;;;;;;23.35;53.66;102021.81;5069896;28;20500;-73
2023/09/27 04:12:15;;;;;;;0.10;0.10;;;;;;;23.27;53.57;102024.31;5069536;28;20028;-72
2023/09/27 04:14:40;;;;;;;0.10;0.10;;;;;;;23.21;53.48;102022.69;5070000;28;20024;-72
2023/09/27 04:17:05;;;;;;;0.10;0.10;;;;;;;23.15;53.17;102027.38;5069213;28;20033;-72
2023/09/27 04:19:31;;;;;;;0.10;0.10;;;;;;;23.11;54.23;102030.97;5070148;28;20055;-72
2023/09/27 04:21:57;;;;;;;0.10;0.10;;;;;;;23.05;55.42;102030.16;5069552;28;20044;-71
2023/09/27 04:24:23;;;;;;;0.10;0.10;;;;;;;22.99;55.28;102027.72;5071081;28;20044;-72
2023/09/27 04:26:48;;;;;;;0.20;0.20;;;;;;;22.99;55.23;102031.28;5068505;28;20452;-72
2023/09/27 04:29:13;;;;;;;0.10;0.10;;;;;;;22.81;56.07;102028.31;5051075;28;20110;-72
2023/09/27 04:31:39;;;;;;;0.10;0.10;;;;;;;23.11;54.89;102030.97;5036969;28;20034;-73
2023/09/27 04:34:04;;;;;;;0.10;0.10;;;;;;;23.10;55.37;102026.56;5040323;28;20045;-71
2023/09/27 04:36:30;;;;;;;0.10;0.10;;;;;;;23.17;54.33;102038.91;5046638;28;20041;-70
2023/09/27 04:38:55;;;;;;;0.10;0.10;;;;;;;23.10;54.44;102030.13;5041613;28;20094;-72
2023/09/27 04:41:21;;;;;;;0.00;0.00;;;;;;;23.02;54.69;102044.41;5051291;28;20032;-73
2023/09/27 04:43:46;;;;;;;0.10;0.10;;;;;;;23.00;54.07;102046.63;5058161;28;20037;-71
2023/09/27 04:46:13;;;;;;;0.10;0.10;;;;;;;23.04;54.63;102047.69;5070497;28;20082;-72
2023/09/27 04:48:38;;;;;;;0.10;0.10;;;;;;;23.07;54.40;102051.81;5070845;28;20036;-72
2023/09/27 04:51:04;;;;;;;0.17;0.17;;;;;;;23.07;54.58;102049.06;5070780;28;20058;-70
2023/09/27 04:53:36;;;;;;;0.10;0.10;;;;;;;23.03;54.66;102045.25;5070848;28;20139;-72
2023/09/27 04:56:04;;;;;;;0.17;0.17;;;;;;;22.96;54.02;102052.97;5070709;28;20047;-72
2023/09/27 04:58:29;;;;;;;0.10;0.10;;;;;;;23.00;54.18;102054.84;5070665;28;20404;-72
2023/09/27 05:00:55;;;;;;;0.10;0.10;;;;;;;22.92;54.19;102065.56;5070700;28;20040;-72
2023/09/27 05:03:20;;;;;;;0.20;0.20;;;;;;;22.90;54.15;102060.34;5070474;28;20035;-73
2023/09/27 05:05:46;;;;;;;0.10;0.10;;;;;;;22.95;54.44;102065.00;5070887;28;20439;-72
2023/09/27 05:08:11;;;;;;;0.10;0.10;;;;;;;22.90;54.52;102067.78;5070027;28;20036;-72
2023/09/27 05:10:37;;;;;;;0.10;0.10;;;;;;;22.96;54.03;102072.16;5069311;28;20373;-72
2023/09/27 05:13:03;;;;;;;0.10;0.10;;;;;;;23.00;53.76;102064.97;5070222;28;20078;-72
2023/09/27 05:15:29;;;;;;;0.10;0.10;;;;;;;23.00;54.18;102057.59;5069546;28;20033;-71
2023/09/27 05:17:55;;;;;;;0.10;0.10;;;;;;;22.99;53.96;102053.22;5069788;28;20369;-72
2023/09/27 05:20:20;;;;;;;0.20;0.20;;;;;;;22.99;55.21;102055.97;5069490;28;20070;-72
2023/09/27 05:22:46;;;;;;;0.20;0.20;;;;;;;22.98;54.69;102054.31;5069282;28;20139;-72
2023/09/27 05:25:12;;;;;;;0.10;0.10;;;;;;;23.04;54.74;102049.63;5069602;28;20085;-72
2023/09/27 05:27:37;;;;;;;0.10;0.10;;;;;;;23.14;54.26;102053.16;5061252;28;20040;-73
2023/09/27 05:30:07;;;;;;;0.10;0.10;;;;;;;23.07;55.29;102060.88;5050009;28;20025;-70
2023/09/27 05:32:32;;;;;;;0.10;0.10;;;;;;;23.04;54.66;102044.13;5054418;28;20028;-72
2023/09/27 05:34:58;;;;;;;0.10;0.10;;;;;;;23.19;54.68;102039.41;5059186;28;20481;-73
2023/09/27 05:37:23;;;;;;;0.10;0.10;;;;;;;23.05;55.20;102035.66;5061227;28;20033;-72
2023/09/27 05:39:49;;;;;;;0.10;0.10;;;;;;;23.17;54.54;102049.03;5057878;28;20028;-72
2023/09/27 05:42:14;;;;;;;0.10;0.10;;;;;;;23.26;55.02;102050.09;5061440;28;20051;-72
2023/09/27 05:44:39;;;;;;;0.10;0.10;;;;;;;23.32;54.52;102057.25;5053421;28;20032;-72
2023/09/27 05:47:05;;;;;;;0.10;0.10;;;;;;;23.32;54.48;102054.50;5048349;28;20088;-72
2023/09/27 05:49:31;;;;;;;0.10;0.10;;;;;;;23.36;54.63;102053.66;5044654;28;20029;-72
2023/09/27 05:51:56;;;;;;;0.10;0.10;;;;;;;23.31;54.56;102050.13;5048822;28;20488;-73
2023/09/27 05:54:22;;;;;;;0.10;0.10;;;;;;;23.28;53.95;102051.47;5046315;28;20022;-73
2023/09/27 05:56:52;;;;;;;0.10;0.10;;;;;;;23.33;54.36;102047.94;5042298;28;20022;-72
2023/09/27 05:59:18;;;;;;;0.17;0.17;;;;;;;23.27;54.61;102046.28;5042264;28;20037;-73
2023/09/27 06:01:44;;;;;;;0.10;0.10;;;;;;;23.25;54.63;102048.47;5048279;28;20040;-72
2023/09/27 06:04:10;;;;;;;0.15;0.15;;;;;;;23.22;54.52;102043.53;5048671;28;20048;-72
2023/09/27 06:06:36;;;;;;;0.10;0.10;;;;;;;23.31;54.74;102034.47;5046362;28;20037;-72
2023/09/27 06:09:05;;;;;;;0.10;0.10;;;;;;;22.99;55.77;102027.72;5049339;28;20033;-71
2023/09/27 06:11:32;;;;;;;0.13;0.13;;;;;;;22.72;56.62;102025.31;5049308;28;20465;-72
2023/09/27 06:13:58;;;;;;;0.10;0.10;;;;;;;22.96;56.07;102026.34;5043466;28;20452;-72
2023/09/27 06:16:24;;;;;;;0.10;0.10;;;;;;;23.05;55.88;102024.69;5049215;28;20041;-72
2023/09/27 06:18:49;;;;;;;0.10;0.10;;;;;;;23.21;55.25;102023.50;5057743;28;20032;-74
2023/09/27 06:21:15;;;;;;;0.10;0.10;;;;;;;23.08;55.79;102015.88;5056687;28;20024;-71
2023/09/27 06:23:41;;;;;;;0.10;0.10;;;;;;;23.12;55.79;102025.19;5064225;28;20055;-72
2023/09/27 06:26:07;;;;;;;0.10;0.10;;;;;;;23.26;55.69;102030.91;5056763;28;20029;-72
2023/09/27 06:28:33;;;;;;;0.10;0.10;;;;;;;23.15;55.69;102029.31;5066288;28;20099;-72
2023/09/27 06:30:59;;;;;;;0.10;0.10;;;;;;;23.23;55.61;102026.78;5065217;28;20039;-72
2023/09/27 06:33:24;;;;;;;0.20;0.20;;;;;;;23.24;55.96;102035.84;5059559;28;20053;-72
2023/09/27 06:35:50;;;;;;;0.20;0.20;;;;;;;23.46;55.64;102037.16;5065745;28;20032;-72
2023/09/27 06:38:19;;;;;;;0.10;0.10;;;;;;;23.46;55.38;102034.41;5065056;28;20578;-73
2023/09/27 06:40:44;;;;;;;0.10;0.10;;;;;;;23.48;55.50;102043.19;5060476;28;20037;-71
2023/09/27 06:43:10;;;;;;;0.10;0.10;;;;;;;23.56;55.57;102033.53;5059541;28;20032;-71
2023/09/27 06:45:37;;;;;;;0.10;0.10;;;;;;;23.57;55.71;102037.09;5061244;28;20828;-72
2023/09/27 06:48:03;;;;;;;0.10;0.10;;;;;;;23.70;55.51;102048.28;5062670;28;20068;-72
2023/09/27 06:50:29;;;;;;;0.10;0.10;;;;;;;24.07;54.61;102050.53;5059119;28;20023;-72
2023/09/27 06:52:56;;;;;;;0.10;0.10;;;;;;;24.04;54.03;102054.66;5059487;28;20039;-72
2023/09/27 06:55:22;;;;;;;0.10;0.10;;;;;;;24.05;54.31;102048.09;5063857;28;20555;-72
2023/09/27 06:57:51;;;;;;;0.10;0.10;;;;;;;23.96;55.06;102057.97;5063732;28;20032;-72
2023/09/27 07:00:24;;;;;;;0.10;0.10;;;;;;;24.10;54.37;102055.44;5041362;28;20037;-72
2023/09/27 07:02:49;;;;;;;0.10;0.10;;;;;;;24.10;54.63;102048.03;5063203;28;20460;-73
2023/09/27 07:05:16;;;;;;;0.00;0.00;;;;;;;24.28;53.91;102063.00;5064739;28;20032;-72
2023/09/27 07:07:41;;;;;;;0.10;0.10;;;;;;;24.26;54.53;102059.72;5058713;28;20044;-73
2023/09/27 07:10:07;;;;;;;0.10;0.10;;;;;;;24.29;54.26;102050.94;5059664;28;20530;-71
2023/09/27 07:12:34;;;;;;;0.10;0.10;;;;;;;24.02;54.20;102065.13;5059631;28;20040;-71
2023/09/27 07:15:00;;;;;;;0.10;0.10;;;;;;;24.46;53.43;102065.06;5059237;28;20098;-70
2023/09/27 07:17:25;;;;;;;0.10;0.10;;;;;;;24.34;54.13;102061.84;5051830;28;20424;-73
2023/09/27 07:19:52;;;;;;;0.10;0.10;;;;;;;24.56;53.77;102066.91;5053845;28;20603;-71
2023/09/27 07:22:17;;;;;;;0.10;0.10;;;;;;;24.59;53.61;102071.84;5048863;28;20057;-73
2023/09/27 07:24:43;;;;;;;0.00;0.00;;;;;;;24.65;54.11;102065.97;5066117;28;20086;-71
2023/09/27 07:27:08;;;;;;;0.00;0.00;;;;;;;24.84;53.27;102071.63;5059878;28;20123;-72
2023/09/27 07:29:34;;;;;;;0.10;0.10;;;;;;;24.75;53.40;102081.59;5053411;28;20056;-71
2023/09/27 07:31:59;;;;;;;0.00;0.00;;;;;;;24.73;53.65;102081.88;5067183;28;20037;-71
2023/09/27 07:34:25;;;;;;;0.10;0.10;;;;;;;24.84;53.58;102074.38;5049160;28;20518;-72
2023/09/27 07:36:51;;;;;;;0.00;0.00;;;;;;;24.84;53.10;102075.19;5048681;28;20083;-71
2023/09/27 07:39:17;;;;;;;0.10;0.10;;;;;;;24.73;53.50;102070.88;5061441;28;20056;-72
2023/09/27 07:41:44;;;;;;;0.10;0.10;;;;;;;24.84;53.62;102074.38;5062574;28;20036;-73
2023/09/27 07:44:10;;;;;;;0.10;0.10;;;;;;;24.72;53.24;102080.25;5058683;28;20033;-71
2023/09/27 07:46:36;;;;;;;0.10;0.10;;;;;;;24.75;53.56;102081.59;5054542;28;20056;-73
2023/09/27 07:49:01;;;;;;;0.10;0.10;;;;;;;24.99;53.01;102072.28;5048989;28;20116;-73
2023/09/27 07:51:26;;;;;;;0.00;0.00;;;;;;;24.93;53.16;102078.94;5048923;28;20044;-73
2023/09/27 07:53:53;;;;;;;0.00;0.00;;;;;;;25.10;52.97;102071.03;5051088;28;20033;-71
2023/09/27 07:56:21;;;;;;;0.10;0.10;;;;;;;25.28;52.89;102069.47;5049978;28;20652;-71
2023/09/27 07:58:52;;;;;;;0.08;0.08;;;;;;;25.18;52.94;102053.06;5048274;28;20036;-72
2023/09/27 08:01:21;;;;;;;0.00;0.00;;;;;;;25.27;53.09;102059.56;5048690;28;20047;-72
2023/09/27 08:03:53;;;;;;;0.00;0.00;;;;;;;25.48;52.73;102060.16;5063883;28;20079;-72
2023/09/27 08:06:19;;;;;;;0.00;0.00;;;;;;;25.63;52.57;102059.97;5068372;28;20067;-72
2023/09/27 08:08:45;;;;;;;0.10;0.10;;;;;;;25.87;52.09;102061.53;5068277;28;20125;-71
2023/09/27 08:11:14;;;;;;;0.00;0.00;;;;;;;25.87;52.01;102061.53;5068716;28;20056;-73
2023/09/27 08:13:40;;;;;;;0.00;0.00;;;;;;;26.13;51.20;102050.97;5050696;28;20420;-71
2023/09/27 08:16:07;;;;;;;0.00;0.00;;;;;;;26.10;51.76;102052.38;5058181;28;20068;-71
2023/09/27 08:18:34;;;;;;;0.00;0.00;;;;;;;26.31;51.20;102050.13;5051870;28;20048;-72
2023/09/27 08:21:00;;;;;;;0.00;0.00;;;;;;;26.36;50.99;102040.97;5066327;28;20116;-70
2023/09/27 08:23:25;;;;;;;0.10;0.10;;;;;;;26.51;51.20;102055.31;5063711;28;20053;-71
2023/09/27 08:25:52;;;;;;;0.00;0.00;;;;;;;26.51;50.76;102058.06;5053120;28;20561;-71
2023/09/27 08:28:17;;;;;;;0.00;0.00;;;;;;;26.67;51.01;102062.16;5058563;28;20049;-71
2023/09/27 08:30:43;;;;;;;0.00;0.00;;;;;;;26.32;51.08;102071.06;5030146;28;20036;-71
2023/09/27 08:33:08;;;;;;;0.00;0.00;;;;;;;26.00;52.23;102093.84;5068164;28;20025;-71
2023/09/27 08:35:34;;;;;;;0.00;0.00;;;;;;;25.65;53.60;102107.31;5050211;28;20036;-72
2023/09/27 08:37:59;;;;;;;0.00;0.00;;;;;;;25.68;53.36;102106.69;5067621;28;20051;-73
2023/09/27 08:40:25;;;;;;;0.10;0.10;;;;;;;25.79;54.04;102103.50;5064410;28;20102;-71
2023/09/27 08:42:56;;;;;;;0.00;0.00;;;;;;;26.19;52.53;102115.09;5060474;28;20037;-71
2023/09/27 08:45:23;;;;;;;0.10;0.10;;;;;;;26.03;53.61;102108.97;5060441;28;20040;-71
2023/09/27 08:47:49;;;;;;;0.10;0.10;;;;;;;25.86;54.07;102114.19;5048111;28;20048;-72
2023/09/27 08:50:18;;;;;;;0.00;0.00;;;;;;;26.01;54.04;102116.72;5057906;28;20040;-72
2023/09/27 08:52:48;;;;;;;0.00;0.00;;;;;;;26.13;53.78;102122.63;5062051;28;20094;-71
2023/09/27 08:55:17;;;;;;;;;;;;;;;26.76;51.88;102110.06;5060563;28;20483;-72
2023/09/27 08:57:46;;;;;;;0.08;0.08;;;;;;;27.06;51.06;102122.47;5058648;28;19924;-72
2023/09/27 09:00:13;;;;;;;0.10;0.10;;;;;;;26.78;52.02;102124.34;5053983;28;20028;-71
2023/09/27 09:02:43;;;;;;;0.08;0.08;;;;;;;26.53;53.24;102133.03;5051829;28;20051;-68
2023/09/27 09:05:12;;;;;;;0.00;0.00;;;;;;;26.88;52.25;102120.59;5063011;28;20037;-71
2023/09/27 09:07:40;;;;;;;0.00;0.00;;;;;;;26.81;52.65;102122.94;5067024;28;20032;-71
2023/09/27 09:10:09;;;;;;;0.08;0.08;;;;;;;26.69;53.62;102120.59;5066185;28;20128;-71
2023/09/27 09:12:37;;;;;;;0.00;0.00;;;;;;;26.29;54.71;102129.56;5047453;28;20445;-70
2023/09/27 09:15:05;;;;;;;0.00;0.00;;;;;;;27.61;50.78;102115.88;5046695;28;20033;-70
2023/09/27 09:17:34;;;;;;;0.00;0.00;;;;;;;28.40;49.32;102124.59;5066699;28;20032;-70
2023/09/27 09:20:27;;;;;;;0.00;0.00;;;;;;;29.12;47.68;102115.00;5067051;28;20132;-72
2023/09/27 09:22:54;;;;;;;0.00;0.00;;;;;;;28.30;48.48;102116.56;5045259;28;20118;-72
2023/09/27 09:25:28;;;;;;;0.00;0.00;;;;;;;28.94;46.99;102110.50;5061116;28;20150;-69
2023/09/27 09:28:04;;;;;;;0.00;0.00;;;;;;;29.29;46.10;102119.81;5050865;28;20047;-73
2023/09/27 09:30:37;;;;;;;0.00;0.00;;;;;;;29.47;45.80;102115.97;5047612;28;20040;-71
2023/09/27 09:33:08;;;;;;;0.00;0.00;;;;;;;29.36;46.30;102104.38;5047187;28;20036;-70
2023/09/27 09:35:34;;;;;;;0.00;0.00;;;;;;;29.62;45.98;102103.63;5047198;28;20074;-72
2023/09/27 09:38:01;;;;;;;0.00;0.00;;;;;;;29.78;45.55;102090.97;5046852;28;20493;-70
2023/09/27 09:40:27;;;;;;;0.00;0.00;;;;;;;29.81;45.85;102082.81;5058750;28;20032;-71
2023/09/27 09:42:53;;;;;;;0.00;0.00;;;;;;;30.13;44.90;102089.84;5065439;28;20032;-71
2023/09/27 09:45:19;;;;;;;0.00;0.00;;;;;;;30.43;44.30;102085.31;5063980;28;20060;-72
2023/09/27 09:47:45;;;;;;;0.00;0.00;;;;;;;30.05;44.55;102079.56;5054934;28;20049;-72
2023/09/27 09:50:18;;;;;;;0.00;0.00;;;;;;;29.90;44.75;102080.03;5062677;28;20177;-71
2023/09/27 09:52:57;;;;;;;0.00;0.00;;;;;;;30.29;44.27;102072.41;5062096;28;20044;-71
2023/09/27 09:55:29;;;;;;;0.00;0.00;;;;;;;29.91;45.77;102071.41;5050857;28;20041;-70
2023/09/27 09:58:35;;;;;;;0.00;0.00;;;;;;;30.43;45.22;102061.13;5070832;28;20036;-72
2023/09/27 10:01:02;;;;;;;0.00;0.00;;;;;;;30.80;44.29;102062.34;5016570;28;20072;-71
2023/09/27 10:03:32;;;;;;;0.00;0.00;;;;;;;30.20;46.04;102041.06;5027681;28;20544;-72
2023/09/27 10:06:01;;;;;;;0.00;0.00;;;;;;;29.96;46.42;102028.84;5028887;28;20324;-72
2023/09/27 10:08:33;;;;;;;0.00;0.00;;;;;;;30.13;46.34;102023.31;5028312;28;20405;-73
2023/09/27 10:10:59;;;;;;;0.00;0.00;;;;;;;29.71;47.70;102027.72;5027630;28;20049;-73
2023/09/27 10:13:25;;;;;;;0.00;0.00;;;;;;;30.04;47.12;102023.28;5011144;28;20053;-74
2023/09/27 10:15:50;;;;;;;0.00;0.00;;;;;;;30.26;45.48;102020.34;5015587;28;20397;-73
2023/09/27 10:18:21;;;;;;;0.00;0.00;;;;;;;30.23;45.67;102018.22;5007508;28;20167;-72
2023/09/27 10:21:05;;;;;;;0.00;0.00;;;;;;;30.05;46.99;102011.03;5006837;28;20096;-71
2023/09/27 10:23:53;;;;;;;0.00;0.00;;;;;;;29.88;47.26;102015.78;5005627;28;20054;-71
2023/09/27 10:26:37;;;;;;;0.00;0.00;;;;;;;30.47;46.02;102006.59;4915621;29;20039;-71
2023/09/27 10:29:15;;;;;;;0.00;0.00;;;;;;;30.65;45.60;102008.19;4914223;29;20087;-71
2023/09/27 10:32:00;;;;;;;0.00;0.00;;;;;;;31.48;43.74;102000.94;4911041;29;20048;-70
2023/09/27 10:34:25;;;;;;;0.00;0.00;;;;;;;31.34;43.22;101999.53;4911321;29;20063;-71
2023/09/27 10:36:52;;;;;;;0.00;0.00;;;;;;;31.10;43.46;101998.19;4922775;28;20069;-72
2023/09/27 10:39:17;;;;;;;0.00;0.00;;;;;;;31.57;41.93;101995.28;4987412;28;20177;-72
2023/09/27 10:41:46;;;;;;;0.00;0.00;;;;;;;31.48;41.99;102000.13;4988402;28;20041;-71
2023/09/27 10:44:13;;;;;;;0.00;0.00;;;;;;;31.37;42.13;102001.63;4987991;28;20178;-70
2023/09/27 10:46:47;;;;;;;0.00;0.00;;;;;;;31.92;41.42;101994.69;4987360;28;20061;-71
2023/09/27 10:49:22;;;;;;;0.00;0.00;;;;;;;31.35;42.56;101984.50;4987877;28;20056;-71
2023/09/27 10:51:48;;;;;;;0.00;0.00;;;;;;;32.05;40.81;101984.44;4987792;28;20421;-71
2023/09/27 10:54:14;;;;;;;0.00;0.00;;;;;;;32.12;40.28;101998.59;4988236;28;20037;-71
2023/09/27 10:56:44;;;;;;;0.00;0.00;;;;;;;32.80;39.17;102003.44;4987602;28;20069;-71
2023/09/27 10:59:10;;;;;;;0.00;0.00;;;;;;;32.73;38.41;101997.59;4987774;28;20061;-71
2023/09/27 11:01:42;;;;;;;0.00;0.00;;;;;;;32.34;38.96;102008.50;4987757;28;20042;-71
2023/09/27 11:04:12;;;;;;;0.00;0.00;;;;;;;32.83;38.84;101999.13;5045650;28;20066;-71
2023/09/27 11:06:37;;;;;;;0.00;0.00;;;;;;;32.99;38.91;102004.84;5069559;28;20068;-71
2023/09/27 11:09:07;;;;;;;0.00;0.00;;;;;;;33.13;38.30;101999.72;5069661;28;20020;-70
2023/09/27 11:11:33;;;;;;;0.00;0.00;;;;;;;33.06;38.91;101991.16;5070203;28;20120;-71
2023/09/27 11:13:59;;;;;;;0.00;0.00;;;;;;;32.84;39.09;101984.84;5049952;28;20067;-72
2023/09/27 11:16:24;;;;;;;0.00;0.00;;;;;;;33.81;37.70;101983.94;5049077;28;20036;-71
2023/09/27 11:18:51;;;;;;;0.00;0.00;;;;;;;33.52;37.66;101979.47;5052900;28;20036;-71
2023/09/27 11:21:17;;;;;;;0.00;0.00;;;;;;;33.08;37.29;101966.53;5049362;28;20036;-71
2023/09/27 11:24:04;;;;;;;0.00;0.00;;;;;;;32.86;38.18;101959.44;5049482;28;20092;-71